sensor_id;sensor_type;location;lat;lon;timestamp;temperature;humidity
67194;DHT22;54121;53.508;49.422;2023-04-05T00:00:10;15.30;41.80
67194;DHT22;54121;53.508;49.422;2023-04-05T00:02:39;15.30;42.00
67194;DHT22;54121;53.508;49.422;2023-04-05T00:05:06;15.60;41.10
67194;DHT22;54121;53.508;49.422;2023-04-05T00:07:34;15.50;41.20
67194;DHT22;54121;53.508;49.422;2023-04-05T00:10:00;15.50;41.60
67194;DHT22;54121;53.508;49.422;2023-04-05T00:12:29;15.60;41.40
67194;DHT22;54121;53.508;49.422;2023-04-05T00:14:58;15.70;41.20
67194;DHT22;54121;53.508;49.422;2023-04-05T00:17:27;15.60;41.10
67194;DHT22;54121;53.508;49.422;2023-04-05T00:19:54;13.70;40.40
67194;DHT22;54121;53.508;49.422;2023-04-05T00:22:25;15.40;41.90
67194;DHT22;54121;53.508;49.422;2023-04-05T00:24:51;15.30;42.20
67194;DHT22;54121;53.508;49.422;2023-04-05T00:27:18;15.10;42.50
67194;DHT22;54121;53.508;49.422;2023-04-05T00:29:45;13.30;41.50
67194;DHT22;54121;53.508;49.422;2023-04-05T00:32:14;15.20;42.30
67194;DHT22;54121;53.508;49.422;2023-04-05T00:34:43;15.30;42.30
67194;DHT22;54121;53.508;49.422;2023-04-05T00:37:10;15.40;41.70
67194;DHT22;54121;53.508;49.422;2023-04-05T00:39:38;15.40;41.70
67194;DHT22;54121;53.508;49.422;2023-04-05T00:42:06;15.30;42.00
67194;DHT22;54121;53.508;49.422;2023-04-05T00:44:38;15.20;42.10
67194;DHT22;54121;53.508;49.422;2023-04-05T00:47:05;15.00;42.20
67194;DHT22;54121;53.508;49.422;2023-04-05T00:49:33;14.90;42.40
67194;DHT22;54121;53.508;49.422;2023-04-05T00:51:59;14.80;42.50
67194;DHT22;54121;53.508;49.422;2023-04-05T00:54:26;14.90;42.40
67194;DHT22;54121;53.508;49.422;2023-04-05T00:56:58;14.70;42.80
67194;DHT22;54121;53.508;49.422;2023-04-05T00:59:25;14.70;42.80
67194;DHT22;54121;53.508;49.422;2023-04-05T01:01:59;14.90;42.30
67194;DHT22;54121;53.508;49.422;2023-04-05T01:04:30;14.90;42.10
67194;DHT22;54121;53.508;49.422;2023-04-05T01:12:03;14.50;42.40
67194;DHT22;54121;53.508;49.422;2023-04-05T01:14:31;14.80;42.50
67194;DHT22;54121;53.508;49.422;2023-04-05T01:16:58;14.80;42.50
67194;DHT22;54121;53.508;49.422;2023-04-05T01:19:27;14.30;42.80
67194;DHT22;54121;53.508;49.422;2023-04-05T01:22:47;16.80;44.10
67194;DHT22;54121;53.508;49.422;2023-04-05T01:24:55;14.70;42.80
67194;DHT22;54121;53.508;49.422;2023-04-05T01:27:41;14.60;42.50
67194;DHT22;54121;53.508;49.422;2023-04-05T01:30:20;14.40;42.30
67194;DHT22;54121;53.508;49.422;2023-04-05T01:33:07;14.50;42.50
67194;DHT22;54121;53.508;49.422;2023-04-05T01:35:38;14.50;42.80
67194;DHT22;54121;53.508;49.422;2023-04-05T01:38:05;13.00;41.80
67194;DHT22;54121;53.508;49.422;2023-04-05T01:40:35;14.40;42.40
67194;DHT22;54121;53.508;49.422;2023-04-05T01:43:13;14.50;42.40
67194;DHT22;54121;53.508;49.422;2023-04-05T01:45:40;14.50;42.50
67194;DHT22;54121;53.508;49.422;2023-04-05T01:48:12;14.40;42.60
67194;DHT22;54121;53.508;49.422;2023-04-05T01:50:39;13.50;41.90
67194;DHT22;54121;53.508;49.422;2023-04-05T01:53:06;14.50;42.20
67194;DHT22;54121;53.508;49.422;2023-04-05T01:55:32;14.50;42.40
67194;DHT22;54121;53.508;49.422;2023-04-05T01:58:01;13.30;41.70
67194;DHT22;54121;53.508;49.422;2023-04-05T02:00:28;14.50;42.00
67194;DHT22;54121;53.508;49.422;2023-04-05T02:02:59;14.40;42.30
67194;DHT22;54121;53.508;49.422;2023-04-05T02:05:30;14.50;42.30
67194;DHT22;54121;53.508;49.422;2023-04-05T02:07:59;14.30;42.50
67194;DHT22;54121;53.508;49.422;2023-04-05T02:10:25;14.40;42.30
67194;DHT22;54121;53.508;49.422;2023-04-05T02:12:55;14.20;42.60
67194;DHT22;54121;53.508;49.422;2023-04-05T02:15:21;14.10;42.80
67194;DHT22;54121;53.508;49.422;2023-04-05T02:17:48;14.10;42.80
67194;DHT22;54121;53.508;49.422;2023-04-05T02:20:21;14.00;42.80
67194;DHT22;54121;53.508;49.422;2023-04-05T02:22:50;14.00;42.50
67194;DHT22;54121;53.508;49.422;2023-04-05T02:25:21;14.20;42.40
67194;DHT22;54121;53.508;49.422;2023-04-05T02:27:47;14.10;42.30
67194;DHT22;54121;53.508;49.422;2023-04-05T02:30:14;14.10;42.40
67194;DHT22;54121;53.508;49.422;2023-04-05T02:32:43;13.90;42.10
67194;DHT22;54121;53.508;49.422;2023-04-05T02:35:14;14.20;42.20
67194;DHT22;54121;53.508;49.422;2023-04-05T02:37:42;14.20;42.30
67194;DHT22;54121;53.508;49.422;2023-04-05T02:40:11;14.30;42.20
67194;DHT22;54121;53.508;49.422;2023-04-05T02:42:38;14.30;42.30
67194;DHT22;54121;53.508;49.422;2023-04-05T02:45:05;14.30;42.30
67194;DHT22;54121;53.508;49.422;2023-04-05T02:47:35;14.30;42.30
67194;DHT22;54121;53.508;49.422;2023-04-05T02:50:04;14.40;42.40
67194;DHT22;54121;53.508;49.422;2023-04-05T02:52:36;14.30;42.40
67194;DHT22;54121;53.508;49.422;2023-04-05T02:55:06;14.30;42.40
67194;DHT22;54121;53.508;49.422;2023-04-05T02:57:33;14.30;42.30
67194;DHT22;54121;53.508;49.422;2023-04-05T03:00:02;14.40;42.00
67194;DHT22;54121;53.508;49.422;2023-04-05T03:02:33;14.50;41.70
67194;DHT22;54121;53.508;49.422;2023-04-05T03:05:02;14.40;41.90
67194;DHT22;54121;53.508;49.422;2023-04-05T03:07:31;12.70;41.10
67194;DHT22;54121;53.508;49.422;2023-04-05T03:10:00;14.60;41.80
67194;DHT22;54121;53.508;49.422;2023-04-05T03:12:28;14.60;41.80
67194;DHT22;54121;53.508;49.422;2023-04-05T03:14:57;14.80;41.20
67194;DHT22;54121;53.508;49.422;2023-04-05T03:17:23;15.00;40.80
67194;DHT22;54121;53.508;49.422;2023-04-05T03:19:49;15.10;40.60
67194;DHT22;54121;53.508;49.422;2023-04-05T03:22:16;14.50;40.00
67194;DHT22;54121;53.508;49.422;2023-04-05T03:24:42;15.30;40.00
67194;DHT22;54121;53.508;49.422;2023-04-05T03:27:09;15.60;39.40
67194;DHT22;54121;53.508;49.422;2023-04-05T03:29:36;15.80;38.90
67194;DHT22;54121;53.508;49.422;2023-04-05T03:32:08;15.00;38.10
67194;DHT22;54121;53.508;49.422;2023-04-05T03:34:39;16.00;38.40
67194;DHT22;54121;53.508;49.422;2023-04-05T03:37:11;15.40;38.00
67194;DHT22;54121;53.508;49.422;2023-04-05T03:39:38;16.30;38.40
67194;DHT22;54121;53.508;49.422;2023-04-05T03:42:04;16.50;38.10
67194;DHT22;54121;53.508;49.422;2023-04-05T03:44:33;16.80;37.10
67194;DHT22;54121;53.508;49.422;2023-04-05T03:47:00;16.90;36.40
67194;DHT22;54121;53.508;49.422;2023-04-05T03:49:26;16.90;36.50
67194;DHT22;54121;53.508;49.422;2023-04-05T03:51:53;17.30;35.90
67194;DHT22;54121;53.508;49.422;2023-04-05T03:54:19;17.60;35.10
67194;DHT22;54121;53.508;49.422;2023-04-05T03:56:49;18.00;34.30
67194;DHT22;54121;53.508;49.422;2023-04-05T03:59:16;18.00;34.10
67194;DHT22;54121;53.508;49.422;2023-04-05T04:01:44;18.20;34.00
67194;DHT22;54121;53.508;49.422;2023-04-05T04:04:11;18.50;33.50
67194;DHT22;54121;53.508;49.422;2023-04-05T04:06:40;18.90;32.40
67194;DHT22;54121;53.508;49.422;2023-04-05T04:09:07;17.80;30.30
67194;DHT22;54121;53.508;49.422;2023-04-05T04:11:36;20.10;30.00
67194;DHT22;54121;53.508;49.422;2023-04-05T04:14:02;20.40;29.40
67194;DHT22;54121;53.508;49.422;2023-04-05T04:16:31;20.80;28.90
67194;DHT22;54121;53.508;49.422;2023-04-05T04:18:57;21.50;28.10
67194;DHT22;54121;53.508;49.422;2023-04-05T04:21:28;22.50;26.40
67194;DHT22;54121;53.508;49.422;2023-04-05T04:23:57;23.30;25.10
67194;DHT22;54121;53.508;49.422;2023-04-05T04:26:25;23.90;24.10
67194;DHT22;54121;53.508;49.422;2023-04-05T04:28:56;24.20;23.40
67194;DHT22;54121;53.508;49.422;2023-04-05T04:31:22;24.40;23.00
67194;DHT22;54121;53.508;49.422;2023-04-05T04:33:48;24.50;22.80
67194;DHT22;54121;53.508;49.422;2023-04-05T04:36:15;24.70;22.40
67194;DHT22;54121;53.508;49.422;2023-04-05T04:38:53;24.00;21.40
67194;DHT22;54121;53.508;49.422;2023-04-05T04:41:20;24.90;22.10
67194;DHT22;54121;53.508;49.422;2023-04-05T04:43:49;25.60;21.60
67194;DHT22;54121;53.508;49.422;2023-04-05T04:46:16;25.80;21.20
67194;DHT22;54121;53.508;49.422;2023-04-05T04:48:44;25.80;21.30
67194;DHT22;54121;53.508;49.422;2023-04-05T04:51:14;26.90;20.30
67194;DHT22;54121;53.508;49.422;2023-04-05T04:53:43;27.60;19.30
67194;DHT22;54121;53.508;49.422;2023-04-05T04:56:12;27.70;19.20
67194;DHT22;54121;53.508;49.422;2023-04-05T04:58:38;28.00;19.50
67194;DHT22;54121;53.508;49.422;2023-04-05T05:01:10;28.30;18.80
67194;DHT22;54121;53.508;49.422;2023-04-05T05:03:36;28.80;18.30
67194;DHT22;54121;53.508;49.422;2023-04-05T05:06:06;28.80;18.40
67194;DHT22;54121;53.508;49.422;2023-04-05T05:08:37;29.00;18.40
67194;DHT22;54121;53.508;49.422;2023-04-05T05:11:05;28.70;18.30
67194;DHT22;54121;53.508;49.422;2023-04-05T05:13:34;28.60;18.30
67194;DHT22;54121;53.508;49.422;2023-04-05T05:16:05;28.80;18.00
67194;DHT22;54121;53.508;49.422;2023-04-05T05:18:36;29.30;17.80
67194;DHT22;54121;53.508;49.422;2023-04-05T05:21:06;29.30;17.70
67194;DHT22;54121;53.508;49.422;2023-04-05T05:23:32;30.10;16.80
67194;DHT22;54121;53.508;49.422;2023-04-05T05:26:01;29.70;17.10
67194;DHT22;54121;53.508;49.422;2023-04-05T05:28:27;29.90;17.20
67194;DHT22;54121;53.508;49.422;2023-04-05T05:30:55;30.00;16.90
67194;DHT22;54121;53.508;49.422;2023-04-05T05:33:27;30.90;16.40
67194;DHT22;54121;53.508;49.422;2023-04-05T05:35:58;30.90;16.50
67194;DHT22;54121;53.508;49.422;2023-04-05T05:38:28;31.60;16.10
67194;DHT22;54121;53.508;49.422;2023-04-05T05:40:59;31.70;15.80
67194;DHT22;54121;53.508;49.422;2023-04-05T05:43:28;31.60;16.10
67194;DHT22;54121;53.508;49.422;2023-04-05T05:45:56;31.70;16.10
67194;DHT22;54121;53.508;49.422;2023-04-05T05:48:25;31.80;16.10
67194;DHT22;54121;53.508;49.422;2023-04-05T05:50:53;32.20;15.60
67194;DHT22;54121;53.508;49.422;2023-04-05T05:53:24;31.70;16.20
67194;DHT22;54121;53.508;49.422;2023-04-05T05:55:52;31.60;16.20
67194;DHT22;54121;53.508;49.422;2023-04-05T05:58:24;31.90;15.90
67194;DHT22;54121;53.508;49.422;2023-04-05T06:00:50;32.40;15.20
67194;DHT22;54121;53.508;49.422;2023-04-05T06:03:18;32.60;15.10
67194;DHT22;54121;53.508;49.422;2023-04-05T06:05:51;32.80;15.00
67194;DHT22;54121;53.508;49.422;2023-04-05T06:08:18;32.60;15.00
67194;DHT22;54121;53.508;49.422;2023-04-05T06:10:46;32.80;14.90
67194;DHT22;54121;53.508;49.422;2023-04-05T06:13:13;33.50;14.00
67194;DHT22;54121;53.508;49.422;2023-04-05T06:15:39;33.90;13.60
67194;DHT22;54121;53.508;49.422;2023-04-05T06:18:08;33.30;13.60
67194;DHT22;54121;53.508;49.422;2023-04-05T06:20:39;33.20;13.70
67194;DHT22;54121;53.508;49.422;2023-04-05T06:23:08;33.30;13.20
67194;DHT22;54121;53.508;49.422;2023-04-05T06:25:39;33.10;13.10
67194;DHT22;54121;53.508;49.422;2023-04-05T06:28:06;33.40;13.20
67194;DHT22;54121;53.508;49.422;2023-04-05T06:30:34;33.40;13.30
67194;DHT22;54121;53.508;49.422;2023-04-05T06:33:01;33.50;13.00
67194;DHT22;54121;53.508;49.422;2023-04-05T06:35:30;33.70;13.10
67194;DHT22;54121;53.508;49.422;2023-04-05T06:37:57;33.80;12.90
67194;DHT22;54121;53.508;49.422;2023-04-05T06:40:25;34.10;12.40
67194;DHT22;54121;53.508;49.422;2023-04-05T06:42:54;33.80;12.80
67194;DHT22;54121;53.508;49.422;2023-04-05T06:45:23;33.80;13.10
67194;DHT22;54121;53.508;49.422;2023-04-05T06:47:51;34.40;12.60
67194;DHT22;54121;53.508;49.422;2023-04-05T06:50:20;35.10;12.10
67194;DHT22;54121;53.508;49.422;2023-04-05T06:52:46;34.70;12.50
67194;DHT22;54121;53.508;49.422;2023-04-05T06:55:12;33.90;12.90
67194;DHT22;54121;53.508;49.422;2023-04-05T06:57:44;34.00;12.60
67194;DHT22;54121;53.508;49.422;2023-04-05T07:00:16;35.20;12.50
67194;DHT22;54121;53.508;49.422;2023-04-05T07:02:48;35.50;11.40
67194;DHT22;54121;53.508;49.422;2023-04-05T07:05:14;35.10;12.00
67194;DHT22;54121;53.508;49.422;2023-04-05T07:07:43;34.50;12.10
67194;DHT22;54121;53.508;49.422;2023-04-05T07:10:16;35.20;11.80
67194;DHT22;54121;53.508;49.422;2023-04-05T07:12:44;34.70;11.80
67194;DHT22;54121;53.508;49.422;2023-04-05T07:15:13;34.60;12.30
67194;DHT22;54121;53.508;49.422;2023-04-05T07:17:40;35.50;11.40
67194;DHT22;54121;53.508;49.422;2023-04-05T07:20:09;35.00;11.40
67194;DHT22;54121;53.508;49.422;2023-04-05T07:22:38;35.20;11.30
67194;DHT22;54121;53.508;49.422;2023-04-05T07:25:05;35.10;11.10
67194;DHT22;54121;53.508;49.422;2023-04-05T07:27:34;35.10;11.30
67194;DHT22;54121;53.508;49.422;2023-04-05T07:30:04;35.00;11.30
67194;DHT22;54121;53.508;49.422;2023-04-05T07:32:33;35.40;10.80
67194;DHT22;54121;53.508;49.422;2023-04-05T07:35:02;35.30;11.10
67194;DHT22;54121;53.508;49.422;2023-04-05T07:37:32;34.80;10.70
67194;DHT22;54121;53.508;49.422;2023-04-05T07:39:58;36.00;10.60
67194;DHT22;54121;53.508;49.422;2023-04-05T07:42:27;35.40;10.70
67194;DHT22;54121;53.508;49.422;2023-04-05T07:44:57;35.00;10.60
67194;DHT22;54121;53.508;49.422;2023-04-05T07:47:26;35.20;10.70
67194;DHT22;54121;53.508;49.422;2023-04-05T07:49:52;36.00;10.80
67194;DHT22;54121;53.508;49.422;2023-04-05T07:52:19;35.90;10.50
67194;DHT22;54121;53.508;49.422;2023-04-05T07:54:50;35.00;11.30
67194;DHT22;54121;53.508;49.422;2023-04-05T07:57:20;35.10;11.50
67194;DHT22;54121;53.508;49.422;2023-04-05T07:59:50;35.10;11.20
67194;DHT22;54121;53.508;49.422;2023-04-05T08:02:17;36.30;10.90
67194;DHT22;54121;53.508;49.422;2023-04-05T08:04:46;35.30;11.10
67194;DHT22;54121;53.508;49.422;2023-04-05T08:07:13;35.40;11.70
67194;DHT22;54121;53.508;49.422;2023-04-05T08:09:40;36.00;11.20
67194;DHT22;54121;53.508;49.422;2023-04-05T08:12:09;35.20;10.40
67194;DHT22;54121;53.508;49.422;2023-04-05T08:14:39;35.80;11.00
67194;DHT22;54121;53.508;49.422;2023-04-05T08:17:08;35.60;11.30
67194;DHT22;54121;53.508;49.422;2023-04-05T08:19:35;35.00;11.30
67194;DHT22;54121;53.508;49.422;2023-04-05T08:22:01;35.60;11.30
67194;DHT22;54121;53.508;49.422;2023-04-05T08:24:31;35.50;11.20
67194;DHT22;54121;53.508;49.422;2023-04-05T08:27:00;35.70;11.20
67194;DHT22;54121;53.508;49.422;2023-04-05T08:29:27;35.40;11.30
67194;DHT22;54121;53.508;49.422;2023-04-05T08:31:55;36.10;11.20
67194;DHT22;54121;53.508;49.422;2023-04-05T08:34:24;36.10;11.10
67194;DHT22;54121;53.508;49.422;2023-04-05T08:36:53;37.20;10.00
67194;DHT22;54121;53.508;49.422;2023-04-05T08:39:25;37.00;10.10
67194;DHT22;54121;53.508;49.422;2023-04-05T08:41:58;36.60;10.50
67194;DHT22;54121;53.508;49.422;2023-04-05T08:44:27;36.30;10.40
67194;DHT22;54121;53.508;49.422;2023-04-05T08:46:58;36.00;10.80
67194;DHT22;54121;53.508;49.422;2023-04-05T08:49:28;35.70;10.80
67194;DHT22;54121;53.508;49.422;2023-04-05T08:51:55;35.50;9.50
67194;DHT22;54121;53.508;49.422;2023-04-05T08:54:24;36.70;10.70
67194;DHT22;54121;53.508;49.422;2023-04-05T08:56:53;36.00;10.70
67194;DHT22;54121;53.508;49.422;2023-04-05T08:59:24;36.20;10.40
67194;DHT22;54121;53.508;49.422;2023-04-05T09:01:55;36.70;10.40
67194;DHT22;54121;53.508;49.422;2023-04-05T09:04:23;36.60;10.10
67194;DHT22;54121;53.508;49.422;2023-04-05T09:06:52;36.50;10.40
67194;DHT22;54121;53.508;49.422;2023-04-05T09:09:21;36.60;10.40
67194;DHT22;54121;53.508;49.422;2023-04-05T09:11:51;36.30;10.20
67194;DHT22;54121;53.508;49.422;2023-04-05T09:14:18;36.60;10.60
67194;DHT22;54121;53.508;49.422;2023-04-05T09:16:46;36.80;10.60
67194;DHT22;54121;53.508;49.422;2023-04-05T09:19:19;36.50;10.30
67194;DHT22;54121;53.508;49.422;2023-04-05T09:22:04;37.30;10.40
67194;DHT22;54121;53.508;49.422;2023-04-05T09:24:41;37.60;9.90
67194;DHT22;54121;53.508;49.422;2023-04-05T09:29:34;37.20;10.20
67194;DHT22;54121;53.508;49.422;2023-04-05T09:32:01;37.20;9.90
67194;DHT22;54121;53.508;49.422;2023-04-05T09:34:31;37.30;9.80
67194;DHT22;54121;53.508;49.422;2023-04-05T09:37:14;37.70;9.60
67194;DHT22;54121;53.508;49.422;2023-04-05T09:39:43;37.10;9.70
67194;DHT22;54121;53.508;49.422;2023-04-05T09:42:15;37.90;9.70
67194;DHT22;54121;53.508;49.422;2023-04-05T09:45:00;39.30;8.10
67194;DHT22;54121;53.508;49.422;2023-04-05T09:47:33;38.60;8.60
67194;DHT22;54121;53.508;49.422;2023-04-05T09:50:01;37.70;9.50
67194;DHT22;54121;53.508;49.422;2023-04-05T09:52:31;37.70;9.10
67194;DHT22;54121;53.508;49.422;2023-04-05T09:55:01;39.20;8.60
67194;DHT22;54121;53.508;49.422;2023-04-05T09:57:32;38.10;9.20
67194;DHT22;54121;53.508;49.422;2023-04-05T09:59:58;37.80;9.30
67194;DHT22;54121;53.508;49.422;2023-04-05T10:02:33;38.00;9.20
67194;DHT22;54121;53.508;49.422;2023-04-05T10:05:08;37.80;9.20
67194;DHT22;54121;53.508;49.422;2023-04-05T10:07:42;38.10;9.30
67194;DHT22;54121;53.508;49.422;2023-04-05T10:10:09;38.30;9.00
67194;DHT22;54121;53.508;49.422;2023-04-05T10:12:38;39.10;8.90
67194;DHT22;54121;53.508;49.422;2023-04-05T10:15:12;40.00;7.90
67194;DHT22;54121;53.508;49.422;2023-04-05T10:17:45;39.00;9.50
67194;DHT22;54121;53.508;49.422;2023-04-05T10:20:18;38.60;8.60
67194;DHT22;54121;53.508;49.422;2023-04-05T10:27:46;38.80;8.50
67194;DHT22;54121;53.508;49.422;2023-04-05T10:30:14;38.80;8.50
67194;DHT22;54121;53.508;49.422;2023-04-05T10:35:19;39.40;7.40
67194;DHT22;54121;53.508;49.422;2023-04-05T10:40:36;40.80;7.00
67194;DHT22;54121;53.508;49.422;2023-04-05T10:43:05;40.50;7.00
67194;DHT22;54121;53.508;49.422;2023-04-05T10:45:33;40.30;7.00
67194;DHT22;54121;53.508;49.422;2023-04-05T10:48:15;40.20;7.20
67194;DHT22;54121;53.508;49.422;2023-04-05T10:50:45;39.90;7.40
67194;DHT22;54121;53.508;49.422;2023-04-05T10:53:14;40.20;7.00
67194;DHT22;54121;53.508;49.422;2023-04-05T10:55:43;39.00;7.60
67194;DHT22;54121;53.508;49.422;2023-04-05T10:58:12;39.40;7.10
67194;DHT22;54121;53.508;49.422;2023-04-05T11:00:41;40.20;7.10
67194;DHT22;54121;53.508;49.422;2023-04-05T11:03:08;39.30;7.00
67194;DHT22;54121;53.508;49.422;2023-04-05T11:05:40;39.50;7.40
67194;DHT22;54121;53.508;49.422;2023-04-05T11:08:09;39.50;6.90
67194;DHT22;54121;53.508;49.422;2023-04-05T11:10:37;40.10;6.60
67194;DHT22;54121;53.508;49.422;2023-04-05T11:13:05;39.80;6.80
67194;DHT22;54121;53.508;49.422;2023-04-05T11:15:35;40.60;6.50
67194;DHT22;54121;53.508;49.422;2023-04-05T11:18:06;40.30;6.60
67194;DHT22;54121;53.508;49.422;2023-04-05T11:23:15;40.40;6.50
67194;DHT22;54121;53.508;49.422;2023-04-05T11:25:49;40.00;6.90
67194;DHT22;54121;53.508;49.422;2023-04-05T11:28:22;41.40;6.30
67194;DHT22;54121;53.508;49.422;2023-04-05T11:30:53;40.00;6.60
67194;DHT22;54121;53.508;49.422;2023-04-05T11:36:08;41.10;6.30
67194;DHT22;54121;53.508;49.422;2023-04-05T11:38:38;41.00;6.40
67194;DHT22;54121;53.508;49.422;2023-04-05T11:41:14;40.00;6.40
67194;DHT22;54121;53.508;49.422;2023-04-05T11:43:45;40.10;6.60
67194;DHT22;54121;53.508;49.422;2023-04-05T11:46:16;40.80;6.20
67194;DHT22;54121;53.508;49.422;2023-04-05T11:48:52;42.20;6.10
67194;DHT22;54121;53.508;49.422;2023-04-05T11:51:24;41.70;5.20
67194;DHT22;54121;53.508;49.422;2023-04-05T11:53:51;40.50;5.40
67194;DHT22;54121;53.508;49.422;2023-04-05T11:56:18;40.20;6.60
67194;DHT22;54121;53.508;49.422;2023-04-05T11:58:47;40.60;6.70
67194;DHT22;54121;53.508;49.422;2023-04-05T12:01:17;39.80;6.90
67194;DHT22;54121;53.508;49.422;2023-04-05T12:03:49;40.40;7.30
67194;DHT22;54121;53.508;49.422;2023-04-05T12:06:20;39.90;7.20
67194;DHT22;54121;53.508;49.422;2023-04-05T12:08:47;39.70;7.30
67194;DHT22;54121;53.508;49.422;2023-04-05T12:11:29;40.00;7.40
67194;DHT22;54121;53.508;49.422;2023-04-05T12:13:59;40.10;7.20
67194;DHT22;54121;53.508;49.422;2023-04-05T12:16:29;40.60;7.20
67194;DHT22;54121;53.508;49.422;2023-04-05T12:19:00;40.20;7.20
67194;DHT22;54121;53.508;49.422;2023-04-05T12:21:26;39.60;7.70
67194;DHT22;54121;53.508;49.422;2023-04-05T12:23:53;39.60;7.70
67194;DHT22;54121;53.508;49.422;2023-04-05T12:26:20;39.50;7.60
67194;DHT22;54121;53.508;49.422;2023-04-05T12:34:05;39.60;7.70
67194;DHT22;54121;53.508;49.422;2023-04-05T12:36:35;39.80;7.70
67194;DHT22;54121;53.508;49.422;2023-04-05T12:39:05;40.30;7.30
67194;DHT22;54121;53.508;49.422;2023-04-05T12:41:32;39.30;7.80
67194;DHT22;54121;53.508;49.422;2023-04-05T12:43:59;40.00;7.70
67194;DHT22;54121;53.508;49.422;2023-04-05T12:46:40;39.10;8.00
67194;DHT22;54121;53.508;49.422;2023-04-05T12:49:12;39.00;8.30
67194;DHT22;54121;53.508;49.422;2023-04-05T12:51:49;40.10;7.80
67194;DHT22;54121;53.508;49.422;2023-04-05T12:54:22;40.20;8.10
67194;DHT22;54121;53.508;49.422;2023-04-05T12:56:49;39.40;8.20
67194;DHT22;54121;53.508;49.422;2023-04-05T12:59:20;38.60;8.40
67194;DHT22;54121;53.508;49.422;2023-04-05T13:01:49;39.40;8.20
67194;DHT22;54121;53.508;49.422;2023-04-05T13:04:16;38.40;8.70
67194;DHT22;54121;53.508;49.422;2023-04-05T13:06:45;38.40;8.80
67194;DHT22;54121;53.508;49.422;2023-04-05T13:09:17;38.80;8.60
67194;DHT22;54121;53.508;49.422;2023-04-05T13:11:48;38.50;8.60
67194;DHT22;54121;53.508;49.422;2023-04-05T13:14:18;38.30;8.60
67194;DHT22;54121;53.508;49.422;2023-04-05T13:16:44;37.80;9.00
67194;DHT22;54121;53.508;49.422;2023-04-05T13:19:13;37.70;9.00
67194;DHT22;54121;53.508;49.422;2023-04-05T13:21:40;38.00;8.80
67194;DHT22;54121;53.508;49.422;2023-04-05T13:24:07;37.50;9.40
67194;DHT22;54121;53.508;49.422;2023-04-05T13:26:38;37.60;9.40
67194;DHT22;54121;53.508;49.422;2023-04-05T13:29:05;36.60;9.80
67194;DHT22;54121;53.508;49.422;2023-04-05T13:31:33;36.40;10.00
67194;DHT22;54121;53.508;49.422;2023-04-05T13:34:02;36.50;10.10
67194;DHT22;54121;53.508;49.422;2023-04-05T13:36:29;37.00;9.80
67194;DHT22;54121;53.508;49.422;2023-04-05T13:38:56;36.00;10.60
67194;DHT22;54121;53.508;49.422;2023-04-05T13:41:25;34.80;11.30
67194;DHT22;54121;53.508;49.422;2023-04-05T13:43:51;33.40;10.60
67194;DHT22;54121;53.508;49.422;2023-04-05T13:46:20;34.70;11.70
67194;DHT22;54121;53.508;49.422;2023-04-05T13:48:47;34.80;11.50
67194;DHT22;54121;53.508;49.422;2023-04-05T13:51:14;35.20;11.30
67194;DHT22;54121;53.508;49.422;2023-04-05T13:53:43;34.70;11.70
67194;DHT22;54121;53.508;49.422;2023-04-05T13:56:13;34.40;11.90
67194;DHT22;54121;53.508;49.422;2023-04-05T13:58:42;33.90;11.60
67194;DHT22;54121;53.508;49.422;2023-04-05T14:01:11;34.10;12.00
67194;DHT22;54121;53.508;49.422;2023-04-05T14:03:40;34.10;11.90
67194;DHT22;54121;53.508;49.422;2023-04-05T14:06:07;33.80;12.10
67194;DHT22;54121;53.508;49.422;2023-04-05T14:08:33;33.50;12.20
67194;DHT22;54121;53.508;49.422;2023-04-05T14:11:03;33.40;12.60
67194;DHT22;54121;53.508;49.422;2023-04-05T14:13:29;33.10;12.40
67194;DHT22;54121;53.508;49.422;2023-04-05T14:15:58;32.50;13.40
67194;DHT22;54121;53.508;49.422;2023-04-05T14:18:26;31.10;13.30
67194;DHT22;54121;53.508;49.422;2023-04-05T14:20:53;31.80;13.60
67194;DHT22;54121;53.508;49.422;2023-04-05T14:23:21;31.80;13.60
67194;DHT22;54121;53.508;49.422;2023-04-05T14:25:53;31.40;13.90
67194;DHT22;54121;53.508;49.422;2023-04-05T14:28:20;31.30;13.80
67194;DHT22;54121;53.508;49.422;2023-04-05T14:30:49;30.80;14.30
67194;DHT22;54121;53.508;49.422;2023-04-05T14:33:18;30.70;14.20
67194;DHT22;54121;53.508;49.422;2023-04-05T14:35:47;30.50;15.00
67194;DHT22;54121;53.508;49.422;2023-04-05T14:38:16;30.00;15.50
67194;DHT22;54121;53.508;49.422;2023-04-05T14:40:45;30.10;15.40
67194;DHT22;54121;53.508;49.422;2023-04-05T14:43:12;29.60;16.00
67194;DHT22;54121;53.508;49.422;2023-04-05T14:45:38;29.60;16.20
67194;DHT22;54121;53.508;49.422;2023-04-05T14:48:07;29.50;16.30
67194;DHT22;54121;53.508;49.422;2023-04-05T14:50:36;29.20;16.70
67194;DHT22;54121;53.508;49.422;2023-04-05T14:53:05;28.60;17.40
67194;DHT22;54121;53.508;49.422;2023-04-05T14:55:34;28.90;17.20
67194;DHT22;54121;53.508;49.422;2023-04-05T14:58:03;28.70;17.20
67194;DHT22;54121;53.508;49.422;2023-04-05T15:00:32;28.50;18.70
67194;DHT22;54121;53.508;49.422;2023-04-05T15:02:59;28.00;18.10
67194;DHT22;54121;53.508;49.422;2023-04-05T15:05:28;27.80;18.50
67194;DHT22;54121;53.508;49.422;2023-04-05T15:07:55;27.70;18.50
67194;DHT22;54121;53.508;49.422;2023-04-05T15:10:22;27.40;18.90
67194;DHT22;54121;53.508;49.422;2023-04-05T15:12:48;27.50;19.00
67194;DHT22;54121;53.508;49.422;2023-04-05T15:15:15;27.40;18.90
67194;DHT22;54121;53.508;49.422;2023-04-05T15:17:41;26.90;19.50
67194;DHT22;54121;53.508;49.422;2023-04-05T15:20:08;27.10;19.20
67194;DHT22;54121;53.508;49.422;2023-04-05T15:22:35;26.70;19.80
67194;DHT22;54121;53.508;49.422;2023-04-05T15:25:04;26.60;20.00
67194;DHT22;54121;53.508;49.422;2023-04-05T15:27:33;26.50;20.20
67194;DHT22;54121;53.508;49.422;2023-04-05T15:29:59;25.30;19.40
67194;DHT22;54121;53.508;49.422;2023-04-05T15:32:30;26.20;20.60
67194;DHT22;54121;53.508;49.422;2023-04-05T15:34:59;26.20;20.60
67194;DHT22;54121;53.508;49.422;2023-04-05T15:37:26;24.50;19.90
67194;DHT22;54121;53.508;49.422;2023-04-05T15:39:52;23.80;20.10
67194;DHT22;54121;53.508;49.422;2023-04-05T15:42:19;25.70;21.00
67194;DHT22;54121;53.508;49.422;2023-04-05T15:44:51;25.60;21.20
67194;DHT22;54121;53.508;49.422;2023-04-05T15:47:18;25.60;21.30
67194;DHT22;54121;53.508;49.422;2023-04-05T15:49:47;25.30;21.50
67194;DHT22;54121;53.508;49.422;2023-04-05T15:52:14;25.20;21.60
67194;DHT22;54121;53.508;49.422;2023-04-05T15:54:45;25.20;21.60
67194;DHT22;54121;53.508;49.422;2023-04-05T15:57:15;25.00;21.80
67194;DHT22;54121;53.508;49.422;2023-04-05T15:59:44;24.80;21.60